createdAt,value
2018-06-10T00:00:48.141Z,18.31
2018-06-10T00:03:51.326Z,18.35
2018-06-10T00:06:54.483Z,18.41
2018-06-10T00:09:57.487Z,18.46
2018-06-10T00:13:00.846Z,18.50
2018-06-10T00:16:03.838Z,18.47
2018-06-10T00:19:06.986Z,18.36
2018-06-10T00:22:10.129Z,18.33
2018-06-10T00:25:13.238Z,18.32
2018-06-10T00:28:20.845Z,18.30
2018-06-10T00:31:23.864Z,18.28
2018-06-10T00:34:27.203Z,18.28
2018-06-10T00:37:32.338Z,18.31
2018-06-10T00:40:36.515Z,18.31
2018-06-10T00:43:39.585Z,18.28
2018-06-10T00:46:42.590Z,18.21
2018-06-10T00:49:45.542Z,18.16
2018-06-10T00:52:48.578Z,18.10
2018-06-10T00:55:51.610Z,18.09
2018-06-10T00:58:54.679Z,18.10
2018-06-10T01:01:57.765Z,18.11
2018-06-10T01:05:01.043Z,18.11
2018-06-10T01:08:04.328Z,18.15
2018-06-10T01:11:07.452Z,18.13
2018-06-10T01:14:10.749Z,18.13
2018-06-10T01:17:13.871Z,18.13
2018-06-10T01:20:16.966Z,18.10
2018-06-10T01:23:20.022Z,18.08
2018-06-10T01:26:28.696Z,18.04
2018-06-10T01:29:31.881Z,18.01
2018-06-10T01:32:35.091Z,18.03
2018-06-10T01:35:39.205Z,18.10
2018-06-10T01:38:43.259Z,18.06
2018-06-10T01:41:47.395Z,18.11
2018-06-10T01:44:51.687Z,18.15
2018-06-10T01:47:56.710Z,18.22
2018-06-10T01:51:00.850Z,18.21
2018-06-10T01:54:03.981Z,18.17
2018-06-10T01:57:08.085Z,18.17
2018-06-10T02:00:11.106Z,18.07
2018-06-10T02:03:14.238Z,18.09
2018-06-10T02:06:20.726Z,18.13
2018-06-10T02:09:23.872Z,18.16
2018-06-10T02:12:27.910Z,18.16
2018-06-10T02:15:35.266Z,18.12
2018-06-10T02:18:39.508Z,18.15
2018-06-10T02:21:42.644Z,18.16
2018-06-10T02:24:45.625Z,18.22
2018-06-10T02:27:49.596Z,18.24
2018-06-10T02:30:53.641Z,18.23
2018-06-10T02:33:56.807Z,18.22
2018-06-10T02:36:59.939Z,18.23
2018-06-10T02:40:08.487Z,18.24
2018-06-10T02:43:11.681Z,18.27
2018-06-10T02:46:14.750Z,18.33
2018-06-10T02:49:18.856Z,18.39
2018-06-10T02:52:27.208Z,18.40
2018-06-10T02:55:30.279Z,18.37
2018-06-10T02:58:33.269Z,18.36
2018-06-10T03:01:36.435Z,18.35
2018-06-10T03:04:39.504Z,18.33
2018-06-10T03:07:42.650Z,18.31
2018-06-10T03:10:45.773Z,18.30
2018-06-10T03:13:48.918Z,18.29
2018-06-10T03:16:52.400Z,18.23
2018-06-10T03:19:57.539Z,18.24
2018-06-10T03:23:02.250Z,18.21
2018-06-10T03:26:05.446Z,18.15
2018-06-10T03:29:08.435Z,18.08
2018-06-10T03:32:11.644Z,18.07
2018-06-10T03:35:14.782Z,18.09
2018-06-10T03:38:17.839Z,18.13
2018-06-10T03:41:20.925Z,18.15
2018-06-10T03:44:24.653Z,18.25
2018-06-10T03:47:27.817Z,18.28
2018-06-10T03:50:31.021Z,18.35
2018-06-10T03:53:35.201Z,18.41
2018-06-10T03:56:38.322Z,18.35
2018-06-10T03:59:41.570Z,18.38
2018-06-10T04:02:44.699Z,18.45
2018-06-10T04:05:53.506Z,18.46
2018-06-10T04:08:56.589Z,18.49
2018-06-10T04:11:59.865Z,18.55
2018-06-10T04:15:03.858Z,18.52
2018-06-10T04:18:07.057Z,18.62
2018-06-10T04:21:10.095Z,18.74
2018-06-10T04:24:13.424Z,18.85
2018-06-10T04:27:17.445Z,18.83
2018-06-10T04:30:21.102Z,18.78
2018-06-10T04:33:24.208Z,18.71
2018-06-10T04:36:27.219Z,18.77
2018-06-10T04:39:30.268Z,18.82
2018-06-10T04:42:33.297Z,18.78
2018-06-10T04:45:36.489Z,18.78
2018-06-10T04:48:39.457Z,18.84
2018-06-10T04:51:42.804Z,18.80
2018-06-10T04:54:45.873Z,18.90
2018-06-10T04:57:50.820Z,18.97
2018-06-10T05:00:53.862Z,18.92
2018-06-10T05:04:09.309Z,18.99
2018-06-10T05:07:12.392Z,19.17
2018-06-10T05:10:15.501Z,19.47
2018-06-10T05:13:18.778Z,19.67
2018-06-10T05:16:21.753Z,19.78
2018-06-10T05:19:25.797Z,19.88
2018-06-10T05:22:29.991Z,19.99
2018-06-10T05:25:32.971Z,20.00
2018-06-10T05:28:36.002Z,20.29
2018-06-10T05:31:39.083Z,20.25
2018-06-10T05:34:46.296Z,20.14
2018-06-10T05:37:51.353Z,20.31
2018-06-10T05:40:55.411Z,20.14
2018-06-10T05:44:00.547Z,19.86
2018-06-10T05:47:05.667Z,20.19
2018-06-10T05:50:09.664Z,20.44
2018-06-10T05:53:16.924Z,20.55
2018-06-10T05:56:23.390Z,20.64
2018-06-10T05:59:26.427Z,20.47
2018-06-10T06:02:29.614Z,19.74
2018-06-10T06:05:32.600Z,19.41
2018-06-10T06:08:41.649Z,19.13
2018-06-10T06:11:49.758Z,19.07
2018-06-10T06:14:52.849Z,19.22
2018-06-10T06:17:57.919Z,19.18
2018-06-10T06:38:30.537Z,19.12
2018-06-10T06:41:33.624Z,19.43
2018-06-10T06:44:36.618Z,19.32
2018-06-10T06:47:39.855Z,19.10
2018-06-10T06:50:44.926Z,19.03
2018-06-10T06:53:51.154Z,18.86
2018-06-10T06:56:58.236Z,18.82
2018-06-10T07:00:02.305Z,18.95
2018-06-10T07:03:05.358Z,18.97
2018-06-10T07:06:08.438Z,18.94
2018-06-10T07:09:11.523Z,19.17
2018-06-10T07:12:14.643Z,19.28
2018-06-10T07:15:17.639Z,19.26
2018-06-10T07:18:20.669Z,19.46
2018-06-10T07:21:23.750Z,19.94
2018-06-10T07:24:27.721Z,20.30
2018-06-10T07:27:31.925Z,20.63
2018-06-10T07:30:40.661Z,20.91
2018-06-10T07:33:44.813Z,20.79
2018-06-10T07:36:47.880Z,21.50
2018-06-10T07:39:51.069Z,21.98
2018-06-10T07:42:55.168Z,24.84
2018-06-10T07:45:59.133Z,27.03
2018-06-10T07:49:02.162Z,27.24
2018-06-10T07:52:06.170Z,26.75
2018-06-10T07:55:09.098Z,26.99
2018-06-10T07:58:15.431Z,28.19
2018-06-10T08:01:18.586Z,27.53
2018-06-10T08:04:21.765Z,27.58
2018-06-10T08:07:24.986Z,26.97
2018-06-10T08:10:32.750Z,26.36
2018-06-10T08:13:35.955Z,26.95
2018-06-10T08:16:38.950Z,26.01
2018-06-10T08:19:45.654Z,25.86
2018-06-10T08:22:48.665Z,25.84
2018-06-10T08:25:52.803Z,26.40
2018-06-10T08:28:57.007Z,26.40
2018-06-10T08:32:00.518Z,25.62
2018-06-10T08:35:03.657Z,25.01
2018-06-10T08:38:06.966Z,25.37
2018-06-10T08:41:10.061Z,25.15
2018-06-10T08:44:13.218Z,25.39
2018-06-10T08:47:16.277Z,25.56
2018-06-10T08:50:19.468Z,26.28
2018-06-10T08:53:22.511Z,26.76
2018-06-10T08:56:25.539Z,26.13
2018-06-10T08:59:28.673Z,26.75
2018-06-10T09:02:31.749Z,26.13
2018-06-10T09:05:34.897Z,26.31
2018-06-10T09:08:38.136Z,27.00
2018-06-10T09:11:41.106Z,27.31
2018-06-10T09:14:44.146Z,26.86
2018-06-10T09:17:49.306Z,26.12
2018-06-10T09:20:53.373Z,26.70
2018-06-10T09:23:56.446Z,25.53
2018-06-10T09:26:59.616Z,27.05
2018-06-10T09:30:02.999Z,27.18
2018-06-10T09:33:06.098Z,27.46
2018-06-10T09:36:09.376Z,28.39
2018-06-10T09:39:13.258Z,26.73
2018-06-10T09:42:27.262Z,26.33
2018-06-10T09:45:30.516Z,26.83
2018-06-10T09:48:33.641Z,27.43
2018-06-10T09:51:40.676Z,26.89
2018-06-10T09:54:43.758Z,26.50
2018-06-10T09:57:46.883Z,26.54
2018-06-10T10:00:50.069Z,27.36
2018-06-10T10:03:56.233Z,27.43
2018-06-10T10:06:59.457Z,27.09
2018-06-10T10:10:02.872Z,27.31
2018-06-10T10:13:05.988Z,27.38
2018-06-10T10:16:09.023Z,27.31
2018-06-10T10:19:12.223Z,27.63
2018-06-10T10:22:15.442Z,27.76
2018-06-10T10:25:18.546Z,27.68
2018-06-10T10:28:21.561Z,27.03
2018-06-10T10:31:24.626Z,27.93
2018-06-10T10:34:29.855Z,27.63
2018-06-10T10:37:46.130Z,27.32
2018-06-10T10:40:49.213Z,28.03
2018-06-10T10:43:52.267Z,27.83
2018-06-10T10:46:59.165Z,27.43
2018-06-10T10:50:03.220Z,27.67
2018-06-10T10:53:09.714Z,27.68
2018-06-10T10:56:18.282Z,27.94
2018-06-10T10:59:22.349Z,28.32
2018-06-10T11:02:25.462Z,28.52
2018-06-10T11:05:28.430Z,28.81
2018-06-10T11:08:33.691Z,28.91
2018-06-10T11:11:41.617Z,29.60
2018-06-10T11:14:48.023Z,28.53
2018-06-10T11:17:51.127Z,28.80
2018-06-10T11:20:54.216Z,29.28
2018-06-10T11:24:12.146Z,28.76
2018-06-10T11:27:15.396Z,29.00
2018-06-10T11:30:18.620Z,28.48
2018-06-10T11:33:21.733Z,29.46
2018-06-10T11:36:24.889Z,29.70
2018-06-10T11:39:27.892Z,29.78
2018-06-10T11:42:32.221Z,28.81
2018-06-10T11:45:35.229Z,28.46
2018-06-10T11:48:39.315Z,28.63
2018-06-10T11:51:42.537Z,29.38
2018-06-10T11:54:45.714Z,29.43
2018-06-10T11:57:48.844Z,28.58
2018-06-10T12:00:53.014Z,28.27
2018-06-10T12:03:59.917Z,28.48
2018-06-10T12:07:23.622Z,28.54
2018-06-10T12:10:32.026Z,28.40
2018-06-10T12:13:35.015Z,27.82
2018-06-10T12:16:39.263Z,27.81
2018-06-10T12:19:48.237Z,28.34
2018-06-10T12:22:51.504Z,29.14
2018-06-10T12:25:54.619Z,29.49
2018-06-10T12:28:57.746Z,29.57
2018-06-10T12:32:00.838Z,29.90
2018-06-10T12:35:04.028Z,29.77
2018-06-10T12:38:07.333Z,29.65
2018-06-10T12:41:11.573Z,29.65
2018-06-10T12:44:14.698Z,29.46
2018-06-10T12:47:21.313Z,29.18
2018-06-10T12:50:25.331Z,28.46
2018-06-10T12:53:28.535Z,29.11
2018-06-10T12:56:32.612Z,29.87
2018-06-10T12:59:36.665Z,29.28
2018-06-10T13:02:41.463Z,29.55
2018-06-10T13:05:47.850Z,29.71
2018-06-10T13:08:52.934Z,29.53
2018-06-10T13:11:56.994Z,29.54
2018-06-10T13:15:00.096Z,29.97
2018-06-10T13:18:21.012Z,30.09
2018-06-10T13:21:28.107Z,30.45
2018-06-10T13:24:33.314Z,29.55
2018-06-10T13:27:36.424Z,28.82
2018-06-10T13:30:39.497Z,29.36
2018-06-10T13:33:42.747Z,29.22
2018-06-10T13:36:45.762Z,29.92
2018-06-10T13:39:50.927Z,30.61
2018-06-10T13:43:08.268Z,30.71
2018-06-10T13:46:11.527Z,30.33
2018-06-10T13:49:22.130Z,29.98
2018-06-10T13:52:32.683Z,29.63
2018-06-10T13:55:35.798Z,29.59
2018-06-10T13:58:43.622Z,29.42
2018-06-10T14:01:48.795Z,30.02
2018-06-10T14:04:51.871Z,30.93
2018-06-10T14:08:00.152Z,30.60
2018-06-10T14:11:07.886Z,30.73
2018-06-10T14:14:10.916Z,29.43
2018-06-10T14:17:14.955Z,29.36
2018-06-10T14:20:21.394Z,30.22
2018-06-10T14:23:24.486Z,29.61
2018-06-10T14:26:28.684Z,29.43
2018-06-10T14:29:34.044Z,29.70
2018-06-10T14:32:43.190Z,29.77
2018-06-10T14:35:46.234Z,29.22
2018-06-10T14:38:52.574Z,28.96
2018-06-10T14:41:55.622Z,28.67
2018-06-10T14:44:59.560Z,28.92
2018-06-10T14:48:04.640Z,29.46
2018-06-10T14:51:11.031Z,30.52
2018-06-10T14:54:14.237Z,29.79
2018-06-10T14:57:36.746Z,29.95
2018-06-10T15:00:40.168Z,30.31
2018-06-10T15:03:44.422Z,30.15
2018-06-10T15:06:54.916Z,29.94
2018-06-10T15:09:57.998Z,28.85
2018-06-10T15:13:06.027Z,28.96
2018-06-10T15:16:09.042Z,29.92
2018-06-10T15:19:17.183Z,29.78
2018-06-10T15:22:20.189Z,29.83
2018-06-10T15:25:23.158Z,29.71
2018-06-10T15:28:26.207Z,28.76
2018-06-10T15:31:32.661Z,28.93
2018-06-10T15:34:35.928Z,28.85
2018-06-10T15:37:40.031Z,28.84
2018-06-10T15:40:43.022Z,29.34
2018-06-10T15:43:46.112Z,30.17
2018-06-10T15:46:49.044Z,30.26
2018-06-10T15:49:53.047Z,30.98
2018-06-10T15:52:58.145Z,31.07
2018-06-10T15:56:02.402Z,30.07
2018-06-10T15:59:05.780Z,29.34
2018-06-10T16:02:09.965Z,28.35
2018-06-10T16:05:14.018Z,28.28
2018-06-10T16:08:17.100Z,28.39
2018-06-10T16:11:20.141Z,28.37
2018-06-10T16:14:23.324Z,28.18
2018-06-10T16:17:27.586Z,28.40
2018-06-10T16:20:40.935Z,28.20
2018-06-10T16:23:45.037Z,28.08
2018-06-10T16:26:49.097Z,27.76
2018-06-10T16:29:52.339Z,27.45
2018-06-10T16:33:02.774Z,27.12
2018-06-10T16:36:06.368Z,27.04
2018-06-10T16:39:09.891Z,26.81
2018-06-10T16:42:13.205Z,26.56
2018-06-10T16:45:18.271Z,26.15
2018-06-10T16:48:29.420Z,25.98
2018-06-10T16:51:32.446Z,25.92
2018-06-10T16:54:35.480Z,25.70
2018-06-10T16:57:38.673Z,25.62
2018-06-10T17:00:41.823Z,25.54
2018-06-10T17:03:47.024Z,25.35
2018-06-10T17:07:01.523Z,25.24
2018-06-10T17:10:05.626Z,25.15
2018-06-10T17:13:09.069Z,25.08
2018-06-10T17:16:13.245Z,24.96
2018-06-10T17:19:16.299Z,24.77
2018-06-10T17:22:19.490Z,24.66
2018-06-10T17:25:22.821Z,24.62
2018-06-10T17:28:25.796Z,24.63
2018-06-10T17:31:28.969Z,24.59
2018-06-10T17:34:32.041Z,24.61
2018-06-10T17:37:35.096Z,24.64
2018-06-10T17:40:41.203Z,24.65
2018-06-10T17:43:48.220Z,24.64
2018-06-10T17:46:51.255Z,24.53
2018-06-10T17:49:54.391Z,24.56
2018-06-10T17:52:59.352Z,24.60
2018-06-10T17:56:07.311Z,24.75
2018-06-10T17:59:33.867Z,24.89
2018-06-10T18:02:36.950Z,25.00
2018-06-10T18:05:41.142Z,25.19
2018-06-10T18:08:48.889Z,25.07
2018-06-10T18:11:51.918Z,24.64
2018-06-10T18:14:54.924Z,24.27
2018-06-10T18:18:01.686Z,24.07
2018-06-10T18:21:09.604Z,24.01
2018-06-10T18:24:12.720Z,24.14
2018-06-10T18:27:16.197Z,24.14
2018-06-10T18:30:27.137Z,24.35
2018-06-10T18:33:35.131Z,24.38
2018-06-10T18:36:38.573Z,24.19
2018-06-10T18:39:42.687Z,24.02
2018-06-10T18:42:46.807Z,23.66
2018-06-10T18:45:50.035Z,23.35
2018-06-10T18:48:53.156Z,23.12
2018-06-10T18:51:56.294Z,22.92
2018-06-10T18:54:59.303Z,22.79
2018-06-10T18:58:02.405Z,22.78
2018-06-10T19:01:05.574Z,22.70
2018-06-10T19:04:08.771Z,22.67
2018-06-10T19:07:11.816Z,22.60
2018-06-10T19:10:14.817Z,22.47
2018-06-10T19:13:18.909Z,22.34
2018-06-10T19:16:21.892Z,22.23
2018-06-10T19:19:24.993Z,22.18
2018-06-10T19:22:32.540Z,22.06
2018-06-10T19:25:35.664Z,21.96
2018-06-10T19:28:38.682Z,21.83
2018-06-10T19:31:42.799Z,21.81
2018-06-10T19:34:45.980Z,21.78
2018-06-10T19:37:49.010Z,21.73
2018-06-10T19:40:53.132Z,21.63
2018-06-10T19:43:56.244Z,21.56
2018-06-10T19:46:59.335Z,21.55
2018-06-10T19:50:02.444Z,21.53
2018-06-10T19:53:05.953Z,21.53
2018-06-10T19:56:09.066Z,21.52
2018-06-10T19:59:12.222Z,21.45
2018-06-10T20:02:21.037Z,21.35
2018-06-10T20:05:24.160Z,21.31
2018-06-10T20:08:27.218Z,21.32
2018-06-10T20:11:30.410Z,21.34
2018-06-10T20:14:38.493Z,21.34
2018-06-10T20:17:45.363Z,21.33
2018-06-10T20:20:49.845Z,21.34
2018-06-10T20:23:54.014Z,21.32
2018-06-10T20:26:59.034Z,21.30
2018-06-10T20:30:02.434Z,21.27
2018-06-10T20:33:06.517Z,21.20
2018-06-10T20:36:10.059Z,21.18
2018-06-10T20:39:14.345Z,21.19
2018-06-10T20:42:17.531Z,21.20
2018-06-10T20:45:20.841Z,21.26
2018-06-10T20:48:24.163Z,21.30
2018-06-10T20:51:28.390Z,21.32
2018-06-10T20:54:31.575Z,21.33
2018-06-10T20:57:39.157Z,21.31
2018-06-10T21:00:44.549Z,21.23
2018-06-10T21:03:51.710Z,21.22
2018-06-10T21:06:55.477Z,21.20
2018-06-10T21:09:59.485Z,21.18
2018-06-10T21:13:33.836Z,21.18
2018-06-10T21:16:37.042Z,21.22
2018-06-10T21:19:40.360Z,21.25
2018-06-10T21:22:43.534Z,21.29
2018-06-10T21:25:49.022Z,21.29
2018-06-10T21:29:02.809Z,21.34
2018-06-10T21:32:08.033Z,21.42
2018-06-10T21:35:11.655Z,21.50
2018-06-10T21:38:17.432Z,21.50
2018-06-10T21:49:37.897Z,21.18
2018-06-10T21:52:50.210Z,21.15
2018-06-10T21:55:53.957Z,21.04
2018-06-10T21:59:01.186Z,20.88
2018-06-10T22:13:59.119Z,20.78
2018-06-10T22:17:02.346Z,20.67
2018-06-10T22:20:05.610Z,20.69
2018-06-10T22:23:08.924Z,20.71
2018-06-10T22:26:12.120Z,20.86
2018-06-10T22:29:15.722Z,21.02
2018-06-10T22:32:18.865Z,21.16
2018-06-10T22:35:23.278Z,21.15
2018-06-10T22:38:26.431Z,21.09
2018-06-10T22:41:29.581Z,21.02
2018-06-10T22:44:32.904Z,20.91
2018-06-10T22:47:36.144Z,20.84
2018-06-10T22:50:39.342Z,20.82
2018-06-10T22:54:03.753Z,20.85
2018-06-10T22:57:07.075Z,20.86
2018-06-10T23:00:10.227Z,20.90
2018-06-10T23:03:14.508Z,20.84
2018-06-10T23:06:18.321Z,20.85
2018-06-10T23:09:21.688Z,20.80
2018-06-10T23:12:24.973Z,20.78
2018-06-10T23:15:28.248Z,20.69
2018-06-10T23:18:32.572Z,20.67
2018-06-10T23:21:35.821Z,20.64
2018-06-10T23:24:39.104Z,20.60
2018-06-10T23:27:42.341Z,20.58
2018-06-10T23:30:45.705Z,20.61
2018-06-10T23:33:48.937Z,20.62
2018-06-10T23:36:52.222Z,20.60
2018-06-10T23:39:56.526Z,20.58
2018-06-10T23:42:59.801Z,20.59
2018-06-10T23:46:05.774Z,20.56
2018-06-10T23:49:09.106Z,20.50
2018-06-10T23:52:12.183Z,20.50
2018-06-10T23:55:15.332Z,20.56
2018-06-10T23:58:18.477Z,20.68
